Time;durP1;ratioP1;P1;durP2;ratioP2;P2;SDS_P1;SDS_P2;PMS_P1;PMS_P2;Temp;Humidity;BMP_temperature;BMP_pressure;BME280_temperature;BME280_humidity;BME280_pressure;Samples;Min_cycle;Max_cycle;Signal;HPM_P1;HPM_P2
2022/08/20 00:04:50;;;;;;;10.40;4.53;;;;;;;18.68;92.64;101287.50;10463216;28;20044;-79
2022/08/20 00:09:54;;;;;;;8.75;4.70;;;;;;;18.60;92.41;101298.19;10456660;28;20093;-79
2022/08/20 00:14:56;;;;;;;8.05;3.95;;;;;;;18.54;92.99;101283.19;10460973;28;20040;-80
2022/08/20 00:19:59;;;;;;;6.60;3.58;;;;;;;18.54;92.94;101277.88;10473799;28;20144;-79
2022/08/20 00:25:08;;;;;;;6.13;3.30;;;;;;;18.51;92.85;101272.63;10468422;28;20061;-84
2022/08/20 00:30:13;;;;;;;6.93;3.72;;;;;;;18.54;93.07;101264.63;10470736;28;20402;-83
2022/08/20 00:35:18;;;;;;;7.95;3.80;;;;;;;18.58;92.90;101254.00;10458412;28;20041;-85
2022/08/20 00:40:24;;;;;;;5.35;3.17;;;;;;;18.63;92.93;101237.16;10456174;28;20067;-83
2022/08/20 00:45:28;;;;;;;5.95;3.25;;;;;;;18.60;92.67;101233.63;10461090;28;20051;-83
2022/08/20 00:50:35;;;;;;;6.50;3.65;;;;;;;18.57;92.90;101233.66;10461813;28;20094;-83
2022/08/20 00:55:38;;;;;;;7.95;4.40;;;;;;;18.53;93.07;101230.16;10472360;28;20048;-83
2022/08/20 01:00:44;;;;;;;7.47;4.13;;;;;;;18.50;93.16;101232.84;10475694;28;20056;-82
2022/08/20 01:05:49;;;;;;;8.05;4.78;;;;;;;18.48;93.49;101238.16;10466060;28;20049;-82
2022/08/20 01:11:04;;;;;;;8.18;4.55;;;;;;;18.54;93.46;101232.81;10471911;28;20067;-82
2022/08/20 01:16:14;;;;;;;8.02;4.32;;;;;;;18.51;93.52;101254.06;10467977;28;20037;-81
2022/08/20 01:21:27;;;;;;;9.52;5.00;;;;;;;18.50;93.67;101246.97;10461823;28;20066;-80
2022/08/20 01:26:38;;;;;;;9.27;4.90;;;;;;;18.44;93.80;101244.38;10470326;28;20050;-80
2022/08/20 01:31:41;;;;;;;8.93;5.00;;;;;;;18.35;93.79;101252.41;10465825;28;20148;-80
2022/08/20 01:36:51;;;;;;;10.35;5.25;;;;;;;18.29;94.18;101258.63;10461233;28;20625;-80
2022/08/20 01:42:13;;;;;;;9.95;5.38;;;;;;;18.20;94.36;101264.88;10458769;28;20068;-79
2022/08/20 01:47:19;;;;;;;10.15;5.90;;;;;;;18.17;94.54;101270.19;10470092;28;20044;-80
2022/08/20 01:52:29;;;;;;;11.35;6.22;;;;;;;18.11;94.78;101267.59;10454486;28;20040;-79
2022/08/20 01:57:33;;;;;;;11.30;6.38;;;;;;;18.08;95.19;101272.91;10464651;28;20068;-79
2022/08/20 02:02:35;;;;;;;11.18;6.28;;;;;;;18.13;95.49;101273.75;10459879;28;20089;-79
2022/08/20 02:07:37;;;;;;;12.25;7.25;;;;;;;18.12;95.67;101261.41;10473207;28;20051;-79
2022/08/20 02:12:39;;;;;;;14.43;8.13;;;;;;;18.10;95.56;101264.94;10475619;28;20052;-78
2022/08/20 02:17:41;;;;;;;14.55;7.05;;;;;;;18.11;95.91;101266.72;10465017;28;20065;-79
2022/08/20 02:22:50;;;;;;;12.55;8.23;;;;;;;18.14;96.07;101272.88;10457649;28;20110;-78
2022/08/20 02:27:54;;;;;;;13.60;8.27;;;;;;;18.08;96.37;101272.91;10458070;28;20642;-79
2022/08/20 02:32:56;;;;;;;13.13;8.30;;;;;;;17.99;96.53;101265.03;10462069;28;20056;-79
2022/08/20 02:37:58;;;;;;;14.77;8.52;;;;;;;18.00;96.49;101278.25;10456024;28;20068;-79
2022/08/20 02:43:01;;;;;;;14.05;8.93;;;;;;;18.02;96.53;101270.31;10472450;28;20068;-79
2022/08/20 02:48:04;;;;;;;13.90;9.63;;;;;;;18.05;96.86;101270.28;10464399;28;20051;-79
2022/08/20 02:53:06;;;;;;;16.88;8.75;;;;;;;18.07;96.65;101276.44;10464821;28;20674;-79
2022/08/20 02:58:08;;;;;;;17.02;9.27;;;;;;;18.15;97.20;101268.44;10467295;28;20072;-78
2022/08/20 03:03:12;;;;;;;14.82;9.65;;;;;;;18.14;96.89;101264.91;10462985;28;20211;-79
2022/08/20 03:08:14;;;;;;;15.88;10.40;;;;;;;18.18;97.04;101268.44;10462521;28;20051;-79
2022/08/20 03:13:18;;;;;;;15.32;10.52;;;;;;;18.12;96.93;101272.00;10469236;28;20077;-79
2022/08/20 03:18:22;;;;;;;19.27;11.85;;;;;;;18.09;96.94;101266.72;10478603;28;20049;-79
2022/08/20 03:23:24;;;;;;;17.95;11.93;;;;;;;18.04;97.01;101284.41;10452951;28;20507;-78
2022/08/20 03:28:26;;;;;;;18.30;11.05;;;;;;;18.09;97.37;101273.78;10451228;28;20033;-78
2022/08/20 03:33:30;;;;;;;20.05;12.77;;;;;;;18.10;97.36;101265.81;10455324;28;20063;-78
2022/08/20 03:38:31;;;;;;;19.05;12.23;;;;;;;18.07;97.51;101278.22;10462494;28;20036;-78
2022/08/20 03:43:34;;;;;;;23.33;13.02;;;;;;;18.06;97.61;101280.00;10455629;28;20128;-77
2022/08/20 03:48:37;;;;;;;21.30;12.68;;;;;;;18.04;97.49;101284.41;10450704;28;20700;-78
2022/08/20 03:53:39;;;;;;;22.80;13.93;;;;;;;18.05;97.40;101291.47;10458689;28;20123;-78
2022/08/20 03:58:40;;;;;;;26.90;14.73;;;;;;;18.06;97.80;101290.59;10454528;28;20128;-78
2022/08/20 04:03:42;;;;;;;26.60;15.63;;;;;;;18.04;97.88;101284.41;10455981;28;20158;-78
2022/08/20 04:08:43;;;;;;;25.05;16.77;;;;;;;18.07;98.09;101296.78;10451111;28;20052;-78
2022/08/20 04:13:45;;;;;;;25.15;16.25;;;;;;;18.06;97.83;101279.09;10442008;28;20128;-78
2022/08/20 04:18:49;;;;;;;27.48;15.85;;;;;;;18.06;97.96;101287.94;10437971;28;20086;-77
2022/08/20 04:24:04;;;;;;;25.85;16.83;;;;;;;18.08;98.33;101282.66;10438374;28;20546;-78
2022/08/20 04:29:07;;;;;;;26.20;15.80;;;;;;;18.08;98.11;101291.47;10441174;28;20374;-78
2022/08/20 04:34:08;;;;;;;27.13;16.77;;;;;;;18.10;98.13;101289.66;10455035;28;20037;-78
2022/08/20 04:39:10;;;;;;;24.90;15.73;;;;;;;18.13;97.96;101305.56;10448467;28;20051;-78
2022/08/20 04:44:11;;;;;;;26.48;16.17;;;;;;;18.12;98.27;101309.13;10446405;28;20033;-78
2022/08/20 04:49:13;;;;;;;26.67;16.52;;;;;;;18.11;98.23;101312.63;10440372;28;20040;-78
2022/08/20 04:54:15;;;;;;;29.90;17.23;;;;;;;18.10;98.43;101316.16;10474358;28;20056;-77
2022/08/20 04:59:16;;;;;;;24.48;16.23;;;;;;;18.11;97.92;101325.91;10457125;28;20049;-77
2022/08/20 05:04:18;;;;;;;27.45;16.23;;;;;;;18.16;98.38;101341.75;10457045;28;20064;-77
2022/08/20 05:09:20;;;;;;;26.02;16.35;;;;;;;18.19;98.45;101341.75;10456261;28;20053;-78
2022/08/20 05:14:21;;;;;;;30.33;16.60;;;;;;;18.17;98.42;101343.53;10476861;28;20043;-77
2022/08/20 05:19:23;;;;;;;23.80;16.35;;;;;;;18.16;98.42;101352.38;10460751;28;20470;-77
2022/08/20 05:24:25;;;;;;;24.30;15.43;;;;;;;18.19;98.16;101347.94;10444059;28;20041;-77
2022/08/20 05:29:27;;;;;;;24.88;14.90;;;;;;;18.23;98.39;101350.59;10444791;28;20432;-77
2022/08/20 05:34:29;;;;;;;22.58;14.63;;;;;;;18.23;98.29;101359.41;10435373;28;20086;-77
2022/08/20 05:39:30;;;;;;;25.58;15.02;;;;;;;18.24;98.16;101360.28;10442958;28;20056;-76
2022/08/20 05:44:38;;;;;;;23.02;12.65;;;;;;;18.26;98.10;101363.81;10434576;28;20440;-76
2022/08/20 05:49:40;;;;;;;17.00;12.25;;;;;;;18.28;98.17;101367.31;10442951;28;20426;-77
2022/08/20 05:54:41;;;;;;;21.65;11.63;;;;;;;18.33;98.11;101371.72;10441680;28;20043;-77
2022/08/20 05:59:43;;;;;;;19.30;10.43;;;;;;;18.33;97.74;101368.16;10437866;28;20055;-77
2022/08/20 06:04:45;;;;;;;17.08;9.77;;;;;;;18.29;97.59;101359.38;10424334;28;20411;-76
2022/08/20 06:09:56;;;;;;;13.25;7.35;;;;;;;18.18;97.47;101366.50;10445330;28;20432;-77
2022/08/20 06:14:58;;;;;;;15.38;7.90;;;;;;;18.18;97.21;101361.22;10442304;28;20503;-77
2022/08/20 06:20:05;;;;;;;14.93;6.57;;;;;;;18.13;96.62;101365.63;10445334;28;20521;-77
2022/08/20 06:25:09;;;;;;;12.20;6.15;;;;;;;18.22;96.17;101362.06;10455884;28;20508;-76
2022/08/20 06:30:13;;;;;;;12.20;6.28;;;;;;;18.29;96.25;101361.16;10457517;28;20048;-76
2022/08/20 06:35:15;;;;;;;12.15;5.72;;;;;;;18.36;95.76;101352.28;10440899;28;20079;-77
2022/08/20 06:40:23;;;;;;;13.05;5.30;;;;;;;18.41;95.35;101354.88;10453415;28;20041;-77
2022/08/20 06:45:28;;;;;;;12.98;5.30;;;;;;;18.48;95.12;101362.78;10466249;28;20488;-76
2022/08/20 06:50:38;;;;;;;11.48;4.20;;;;;;;18.57;94.75;101358.31;10454323;28;20043;-77
2022/08/20 06:55:53;;;;;;;9.65;5.65;;;;;;;18.62;94.51;101369.78;10458490;28;20822;-78
2022/08/20 07:00:55;;;;;;;15.05;4.43;;;;;;;18.92;93.83;101376.66;10448218;28;20135;-77
2022/08/20 07:05:56;;;;;;;9.75;3.47;;;;;;;18.92;93.83;101376.66;10448888;28;20119;-75
2022/08/20 07:10:58;;;;;;;18.15;3.80;;;;;;;19.08;91.67;101372.97;10442723;28;20052;-76
2022/08/20 07:16:00;;;;;;;10.25;2.92;;;;;;;19.10;90.49;101386.22;10448182;28;20090;-77
2022/08/20 07:21:02;;;;;;;13.30;2.80;;;;;;;19.15;89.68;101400.31;10446692;28;20503;-76
2022/08/20 07:26:04;;;;;;;10.48;2.70;;;;;;;19.22;88.96;101391.41;10439849;28;20139;-76
2022/08/20 07:36:27;;;;;;;12.23;2.42;;;;;;;19.38;87.34;101397.47;10435321;28;20061;-77
2022/08/20 07:41:28;;;;;;;11.35;3.03;;;;;;;19.81;87.05;101403.25;10440848;28;20037;-75
2022/08/20 07:46:31;;;;;;;13.85;2.83;;;;;;;20.39;85.99;101410.50;10437480;28;20041;-75
2022/08/20 07:51:33;;;;;;;10.45;3.13;;;;;;;20.65;85.11;101420.78;10438483;28;20047;-76
2022/08/20 07:56:34;;;;;;;12.50;2.60;;;;;;;21.07;83.61;101425.47;10438398;28;20049;-75
2022/08/20 08:01:37;;;;;;;11.60;2.47;;;;;;;21.53;82.51;101422.03;10438464;28;20037;-77
2022/08/20 08:06:39;;;;;;;10.73;2.45;;;;;;;22.04;80.69;101425.50;10444953;28;20518;-74
2022/08/20 08:11:48;;;;;;;10.60;1.85;;;;;;;22.66;79.14;101435.75;10439521;28;20041;-75
2022/08/20 08:16:53;;;;;;;9.00;2.20;;;;;;;22.47;76.51;101429.94;10438919;28;20062;-75
2022/08/20 08:21:56;;;;;;;6.13;1.48;;;;;;;22.07;75.10;101442.31;10438125;28;20053;-78
2022/08/20 08:26:59;;;;;;;10.05;2.40;;;;;;;21.96;74.96;101449.63;10439441;28;20048;-76
2022/08/20 08:32:02;;;;;;;8.20;1.80;;;;;;;22.38;73.92;101447.06;10439054;28;20037;-75
2022/08/20 08:37:04;;;;;;;15.52;2.03;;;;;;;22.17;73.32;101459.03;10439415;28;20051;-74
2022/08/20 08:42:22;;;;;;;10.75;2.13;;;;;;;22.24;73.05;101465.97;10437749;28;20045;-74
2022/08/20 08:47:28;;;;;;;10.93;2.10;;;;;;;22.39;71.62;101461.25;10434408;28;20044;-73
2022/08/20 08:52:35;;;;;;;15.07;2.08;;;;;;;22.83;71.11;101469.19;10437980;28;20036;-73
2022/08/20 08:57:37;;;;;;;9.73;1.38;;;;;;;23.53;68.03;101476.41;10438160;28;20069;-73
2022/08/20 09:02:41;;;;;;;5.00;1.17;;;;;;;23.98;65.36;101473.44;10444558;28;20024;-72
2022/08/20 09:07:47;;;;;;;6.18;1.40;;;;;;;23.94;63.43;101482.47;10437436;28;20075;-74
2022/08/20 09:12:49;;;;;;;6.93;1.48;;;;;;;24.36;62.42;101479.47;10439700;28;20503;-72
2022/08/20 09:17:52;;;;;;;9.40;1.33;;;;;;;24.43;60.90;101474.84;10433146;28;20551;-70
2022/08/20 09:22:54;;;;;;;10.80;2.00;;;;;;;24.57;59.55;101487.78;10440077;28;20064;-71
2022/08/20 09:27:56;;;;;;;13.63;1.27;;;;;;;25.08;59.49;101491.59;10436190;28;20041;-71
2022/08/20 09:32:59;;;;;;;7.95;1.27;;;;;;;24.32;56.84;101493.88;10436855;28;20041;-71
2022/08/20 09:38:00;;;;;;;7.82;1.40;;;;;;;24.05;58.67;101495.53;10437140;28;20516;-72
2022/08/20 09:43:04;;;;;;;6.68;1.30;;;;;;;23.83;58.30;101486.28;10441534;28;20041;-71
2022/08/20 09:48:06;;;;;;;8.20;1.27;;;;;;;23.93;58.08;101497.66;10448792;28;20057;-71
2022/08/20 09:53:11;;;;;;;9.23;1.30;;;;;;;24.37;56.01;101497.31;10446515;28;20569;-74
2022/08/20 09:58:37;;;;;;;3.22;1.00;;;;;;;24.68;54.24;101494.63;10445387;28;20279;-72
2022/08/20 10:03:41;;;;;;;4.70;1.20;;;;;;;25.26;54.97;101498.16;10442784;28;20124;-71
2022/08/20 10:08:43;;;;;;;8.35;1.17;;;;;;;25.59;53.16;101501.53;10451166;28;20049;-71
2022/08/20 10:13:44;;;;;;;4.45;1.30;;;;;;;25.46;52.59;101511.81;10444400;28;20099;-72
2022/08/20 10:18:48;;;;;;;6.13;1.30;;;;;;;25.91;50.94;101508.44;10439715;28;20431;-73
2022/08/20 10:23:49;;;;;;;3.58;1.10;;;;;;;25.90;49.74;101513.88;10441298;28;20546;-76
2022/08/20 10:28:51;;;;;;;4.18;0.98;;;;;;;25.26;48.72;101514.25;10451810;28;20045;-72
2022/08/20 10:33:53;;;;;;;6.20;1.10;;;;;;;25.69;49.72;101508.31;10443176;28;20041;-73
2022/08/20 10:38:54;;;;;;;5.97;1.20;;;;;;;25.68;48.77;101517.28;10448340;28;20459;-77
2022/08/20 10:43:56;;;;;;;8.70;1.23;;;;;;;25.50;48.46;101515.25;10442131;28;20044;-74
2022/08/20 10:48:57;;;;;;;6.03;1.30;;;;;;;25.53;48.63;101513.31;10444609;28;20049;-74
2022/08/20 10:53:59;;;;;;;5.47;1.00;;;;;;;25.94;49.15;101511.03;10441843;28;20044;-76
2022/08/20 10:59:00;;;;;;;7.45;1.33;;;;;;;26.31;48.79;101510.63;10443039;28;20820;-71
2022/08/20 11:04:03;;;;;;;5.53;1.15;;;;;;;26.34;48.01;101516.75;10405497;28;20049;-73
2022/08/20 11:09:05;;;;;;;5.53;1.20;;;;;;;26.33;47.40;101514.13;10429936;28;20140;-74
2022/08/20 11:14:10;;;;;;;4.38;1.20;;;;;;;25.86;47.26;101523.81;10427153;28;20079;-72
2022/08/20 11:19:11;;;;;;;3.83;0.90;;;;;;;25.74;48.01;101522.44;10430044;28;20202;-75
2022/08/20 11:24:13;;;;;;;6.10;1.60;;;;;;;25.21;48.16;101528.66;10433074;28;20047;-73
2022/08/20 11:29:16;;;;;;;4.63;1.00;;;;;;;25.62;48.10;101522.00;10436969;28;20072;-75
2022/08/20 11:34:18;;;;;;;8.52;1.42;;;;;;;25.67;48.48;101522.72;10434541;28;20047;-71
2022/08/20 11:39:19;;;;;;;7.65;1.17;;;;;;;25.92;48.24;101515.53;10427549;28;20524;-72
2022/08/20 11:44:21;;;;;;;4.13;1.10;;;;;;;25.78;47.38;101517.88;10428001;28;20040;-72
2022/08/20 11:49:23;;;;;;;6.65;1.13;;;;;;;26.03;47.40;101517.00;10441103;28;20059;-74
2022/08/20 11:54:24;;;;;;;6.82;1.50;;;;;;;26.01;47.05;101524.25;10433866;28;20041;-73
2022/08/20 11:59:26;;;;;;;5.07;1.10;;;;;;;25.42;47.34;101526.22;10437779;28;20041;-73
2022/08/20 12:04:28;;;;;;;6.40;1.17;;;;;;;24.93;48.73;101520.63;10431082;28;20653;-72
2022/08/20 12:09:33;;;;;;;7.93;1.35;;;;;;;24.86;49.22;101524.41;10430790;28;20563;-75
2022/08/20 12:14:35;;;;;;;4.90;0.95;;;;;;;25.08;48.73;101524.63;10430867;28;20052;-73
2022/08/20 12:19:41;;;;;;;4.30;1.17;;;;;;;25.23;48.20;101516.06;10438183;28;20037;-74
2022/08/20 12:24:43;;;;;;;4.40;0.90;;;;;;;25.64;47.28;101518.34;10448196;28;20518;-74
2022/08/20 12:29:48;;;;;;;11.18;1.10;;;;;;;26.07;46.91;101527.56;10438855;28;20041;-72
2022/08/20 12:34:50;;;;;;;3.92;1.10;;;;;;;25.94;45.77;101529.81;10443666;28;20051;-72
2022/08/20 12:39:55;;;;;;;8.65;1.25;;;;;;;25.92;46.08;101526.28;10438685;28;20051;-73
2022/08/20 12:44:58;;;;;;;4.95;1.10;;;;;;;25.45;46.36;101525.28;10444130;28;20045;-72
2022/08/20 12:50:04;;;;;;;5.88;1.20;;;;;;;25.09;47.03;101528.19;10438069;28;20135;-71
2022/08/20 12:55:09;;;;;;;7.18;1.00;;;;;;;25.29;47.76;101528.41;10443256;28;20045;-74
2022/08/20 13:00:19;;;;;;;6.32;1.38;;;;;;;25.25;48.39;101540.13;10440163;28;20047;-75
2022/08/20 13:05:22;;;;;;;3.92;1.05;;;;;;;25.09;48.34;101533.56;10440766;28;20053;-72
2022/08/20 13:10:30;;;;;;;5.65;1.27;;;;;;;24.75;48.34;101526.56;10444660;28;20120;-75
2022/08/20 13:15:32;;;;;;;7.50;1.30;;;;;;;24.26;48.90;101536.84;10434837;28;20038;-72
2022/08/20 13:20:35;;;;;;;4.57;1.13;;;;;;;24.39;49.41;101526.69;10442206;28;20479;-72
2022/08/20 13:25:36;;;;;;;6.38;1.05;;;;;;;24.65;48.92;101515.22;10436679;28;20041;-72
2022/08/20 13:30:39;;;;;;;6.70;1.38;;;;;;;24.39;48.36;101516.00;10437787;28;20471;-72
2022/08/20 13:35:41;;;;;;;6.95;1.30;;;;;;;24.17;47.94;101522.84;10441807;28;20056;-72
2022/08/20 13:40:42;;;;;;;6.90;1.38;;;;;;;24.80;48.22;101517.47;10444468;28;20044;-74
2022/08/20 13:45:49;;;;;;;7.50;1.48;;;;;;;24.75;46.77;101510.50;10436699;28;20087;-74
2022/08/20 13:50:50;;;;;;;5.85;1.20;;;;;;;25.13;46.29;101513.75;10441149;28;20038;-73
2022/08/20 13:55:55;;;;;;;4.93;1.10;;;;;;;25.29;45.35;101511.44;10436734;28;20068;-71
2022/08/20 14:00:56;;;;;;;5.68;1.17;;;;;;;25.49;44.85;101506.34;10436894;28;20053;-72
2022/08/20 14:06:00;;;;;;;10.70;1.50;;;;;;;25.28;44.71;101520.41;10436424;28;20068;-73
2022/08/20 14:11:01;;;;;;;5.53;1.08;;;;;;;24.82;45.34;101515.59;10439302;28;20069;-71
2022/08/20 14:16:03;;;;;;;3.95;0.90;;;;;;;25.44;44.46;101518.16;10436462;28;20045;-74
2022/08/20 14:21:05;;;;;;;4.78;0.82;;;;;;;25.54;44.50;101515.09;10437088;28;20052;-71
2022/08/20 14:26:06;;;;;;;8.35;1.10;;;;;;;25.61;43.89;101520.25;10444598;28;20585;-73
2022/08/20 14:31:08;;;;;;;6.45;1.10;;;;;;;25.56;44.19;101502.50;10436686;28;20071;-74
2022/08/20 14:36:09;;;;;;;6.78;0.80;;;;;;;25.73;43.88;101506.41;10435831;28;20043;-73
2022/08/20 14:41:11;;;;;;;3.63;0.95;;;;;;;25.79;44.01;101502.63;10444231;28;20071;-73
2022/08/20 14:46:12;;;;;;;2.53;0.80;;;;;;;25.98;43.18;101503.72;10443952;28;20037;-73
2022/08/20 14:51:14;;;;;;;3.65;0.93;;;;;;;26.01;43.85;101509.00;10447321;28;20124;-73
2022/08/20 14:56:16;;;;;;;4.75;1.00;;;;;;;25.52;43.57;101500.88;10447778;28;20051;-73
2022/08/20 15:01:18;;;;;;;4.50;1.13;;;;;;;25.68;43.50;101501.19;10443178;28;20049;-73
2022/08/20 15:06:20;;;;;;;2.92;0.80;;;;;;;25.77;42.91;101498.19;10442286;28;20036;-71
2022/08/20 15:11:22;;;;;;;9.23;1.08;;;;;;;25.98;43.11;101498.34;10447027;28;20040;-72
2022/08/20 15:16:24;;;;;;;5.35;1.23;;;;;;;26.01;43.57;101502.78;10446050;28;20039;-73
2022/08/20 15:21:28;;;;;;;4.18;0.98;;;;;;;25.98;42.74;101502.84;10449637;28;20069;-73
2022/08/20 15:26:46;;;;;;;6.57;1.08;;;;;;;26.18;43.41;101505.72;10443852;28;20079;-71
2022/08/20 15:31:47;;;;;;;3.72;0.82;;;;;;;26.10;42.76;101502.44;10450778;28;20441;-71
2022/08/20 15:36:49;;;;;;;6.53;1.35;;;;;;;25.65;42.41;101503.13;10465117;28;20037;-73
2022/08/20 15:41:50;;;;;;;4.45;1.00;;;;;;;25.70;42.80;101503.81;10443319;28;20655;-71
2022/08/20 15:46:52;;;;;;;2.17;0.70;;;;;;;25.58;42.80;101499.75;10445915;28;20039;-71
2022/08/20 15:51:53;;;;;;;9.20;1.45;;;;;;;25.52;42.82;101511.59;10448663;28;20052;-72
2022/08/20 15:57:33;;;;;;;6.32;1.30;;;;;;;25.61;43.24;101510.38;10443263;28;20064;-71
2022/08/20 16:02:53;;;;;;;;;;;;;;;25.58;43.36;101519.44;10439562;28;20411;-73
2022/08/20 16:08:14;;;;;;;5.10;1.13;;;;;;;25.46;43.24;101510.91;10448445;28;20502;-71
2022/08/20 16:13:27;;;;;;;4.88;1.27;;;;;;;25.49;43.62;101513.50;10444006;28;20041;-72
2022/08/20 16:18:33;;;;;;;7.78;1.40;;;;;;;25.47;43.98;101518.03;10438541;28;20464;-72
2022/08/20 16:23:38;;;;;;;6.75;1.40;;;;;;;25.34;43.75;101507.72;10435833;28;20037;-72
2022/08/20 16:29:01;;;;;;;7.78;1.25;;;;;;;24.92;44.67;101512.63;10438894;28;20557;-72
2022/08/20 16:34:14;;;;;;;5.88;1.08;;;;;;;25.02;45.02;101512.28;10533963;28;20054;-73
2022/08/20 16:39:44;;;;;;;8.98;1.27;;;;;;;24.92;45.41;101515.31;10542916;28;20051;-76
2022/08/20 16:44:52;;;;;;;6.05;1.13;;;;;;;24.77;45.60;101519.34;10536917;28;20044;-75
2022/08/20 16:50:18;;;;;;;4.05;1.25;;;;;;;24.68;45.95;101513.34;10542853;28;20039;-78
2022/08/20 16:55:22;;;;;;;9.48;1.40;;;;;;;24.62;45.85;101518.00;10535268;28;20124;-75
2022/08/20 17:00:29;;;;;;;6.45;1.52;;;;;;;24.35;46.91;101520.56;10534757;28;20050;-75
2022/08/20 17:05:53;;;;;;;8.05;1.35;;;;;;;24.39;46.70;101527.56;10545542;28;20508;-74
2022/08/20 17:11:29;;;;;;;6.95;1.63;;;;;;;24.28;46.42;101518.97;10531912;28;20471;-74
2022/08/20 17:16:34;;;;;;;6.45;1.70;;;;;;;24.26;47.04;101526.16;10531602;28;20079;-73
2022/08/20 17:21:37;;;;;;;7.60;1.48;;;;;;;24.27;46.84;101518.09;10543003;28;20080;-73
2022/08/20 17:26:43;;;;;;;5.18;1.27;;;;;;;24.08;47.69;101527.53;10546164;28;20040;-73
2022/08/20 17:31:49;;;;;;;6.13;1.30;;;;;;;23.77;49.47;101529.22;10535566;28;20634;-74
2022/08/20 17:37:03;;;;;;;6.22;1.20;;;;;;;23.21;51.12;101534.19;10518058;28;20403;-72
2022/08/20 17:42:23;;;;;;;7.00;1.38;;;;;;;22.66;52.34;101536.31;10515007;28;20055;-73
2022/08/20 17:47:35;;;;;;;9.00;2.15;;;;;;;22.32;53.45;101537.84;10539725;28;20043;-72
2022/08/20 17:52:49;;;;;;;5.43;1.13;;;;;;;21.99;54.22;101540.25;10527148;28;20036;-74
2022/08/20 17:57:56;;;;;;;7.32;1.30;;;;;;;21.75;55.18;101535.34;10533261;28;20043;-75
2022/08/20 18:03:12;;;;;;;7.75;1.20;;;;;;;21.52;56.00;101539.31;10519573;28;20051;-73
2022/08/20 18:08:15;;;;;;;9.30;1.58;;;;;;;21.31;56.85;101544.03;10518468;28;20115;-73
2022/08/20 18:13:22;;;;;;;10.00;1.40;;;;;;;21.12;57.60;101548.78;10528858;28;20051;-73
2022/08/20 18:18:40;;;;;;;6.50;1.38;;;;;;;20.98;58.55;101548.94;10534003;28;20047;-73
2022/08/20 18:24:05;;;;;;;8.82;1.55;;;;;;;20.75;58.94;101546.63;10543559;28;20039;-74
2022/08/20 18:29:17;;;;;;;7.53;1.38;;;;;;;20.75;58.94;101546.63;10539201;28;20039;-73
2022/08/20 18:34:27;;;;;;;4.68;1.45;;;;;;;20.40;60.50;101555.00;10546191;28;20406;-73
2022/08/20 18:39:49;;;;;;;7.60;1.60;;;;;;;20.24;60.81;101567.59;10532385;28;20090;-73
2022/08/20 18:44:53;;;;;;;9.50;1.83;;;;;;;20.19;61.69;101564.09;10528061;28;20447;-73
2022/08/20 18:50:09;;;;;;;6.00;1.98;;;;;;;20.08;61.81;101562.41;10545105;28;20532;-74
2022/08/20 18:55:30;;;;;;;8.88;1.83;;;;;;;-147.53;100.00;57128.34;10532370;28;20047;-75
2022/08/20 19:00:40;;;;;;;15.70;2.15;;;;;;;19.75;63.19;101571.56;10543278;28;20066;-74
2022/08/20 19:05:45;;;;;;;8.93;2.35;;;;;;;19.63;63.92;101558.38;10540391;28;20433;-75
2022/08/20 19:11:01;;;;;;;8.55;1.55;;;;;;;19.49;64.72;101569.13;10543572;28;20047;-75
2022/08/20 19:16:31;;;;;;;9.98;1.50;;;;;;;19.30;65.34;101561.28;10542429;28;20422;-75
2022/08/20 19:21:34;;;;;;;11.90;2.00;;;;;;;19.12;65.92;101564.94;10539296;28;20582;-76
2022/08/20 19:26:43;;;;;;;8.38;1.50;;;;;;;19.01;66.25;101561.47;10535029;28;20097;-74
2022/08/20 19:31:45;;;;;;;8.18;1.48;;;;;;;18.89;66.88;101562.41;10543782;28;20067;-74
2022/08/20 19:37:00;;;;;;;7.18;1.50;;;;;;;18.76;67.14;101565.97;10543967;28;20059;-77
2022/08/20 19:42:26;;;;;;;8.73;1.90;;;;;;;18.54;67.83;101561.66;10543610;28;20051;-76
2022/08/20 19:47:33;;;;;;;7.53;1.58;;;;;;;18.29;68.29;101554.66;10544485;28;20043;-75
2022/08/20 19:53:03;;;;;;;8.05;1.67;;;;;;;-147.53;100.00;57128.34;10540528;28;20046;-74
2022/08/20 19:58:13;;;;;;;5.47;1.65;;;;;;;-147.53;100.00;57128.34;10537680;28;20082;-74
2022/08/20 20:03:32;;;;;;;6.88;2.13;;;;;;;-147.53;100.00;57128.34;10546697;28;20063;-75
2022/08/20 20:08:58;;;;;;;6.65;1.83;;;;;;;-147.53;100.00;57128.34;10545480;28;20047;-74
2022/08/20 20:14:07;;;;;;;9.63;1.85;;;;;;;-147.53;100.00;57128.34;10544629;28;20052;-74
2022/08/20 20:19:11;;;;;;;9.50;1.70;;;;;;;-147.53;100.00;57128.34;10542765;28;20058;-75
2022/08/20 20:24:40;;;;;;;8.05;1.95;;;;;;;-147.53;100.00;57128.34;10535860;28;20051;-75
2022/08/20 20:29:42;;;;;;;9.15;2.40;;;;;;;-147.53;100.00;57128.34;10550814;28;20047;-76
2022/08/20 20:34:51;;;;;;;7.63;1.90;;;;;;;-147.53;100.00;57128.34;10540188;28;20036;-73
2022/08/20 20:40:18;;;;;;;7.13;2.03;;;;;;;-147.53;100.00;57128.34;10549257;28;20039;-75
2022/08/20 20:45:27;;;;;;;9.40;2.67;;;;;;;-147.53;100.00;57128.34;10545197;28;20059;-75
2022/08/20 20:50:38;;;;;;;8.70;2.45;;;;;;;-147.53;100.00;57128.34;10535664;28;20044;-76
2022/08/20 20:55:51;;;;;;;15.38;2.67;;;;;;;16.74;75.56;101546.56;10544860;28;20547;-75
2022/08/20 21:00:53;;;;;;;6.90;2.10;;;;;;;16.60;76.00;101546.53;10542460;28;20039;-74
2022/08/20 21:05:55;;;;;;;9.98;1.98;;;;;;;16.43;76.43;101534.97;10544655;28;20040;-74
2022/08/20 21:10:57;;;;;;;8.23;2.50;;;;;;;16.23;77.08;101542.81;10549136;28;20050;-76
2022/08/20 21:15:59;;;;;;;9.70;2.80;;;;;;;16.15;77.45;101541.88;10544851;28;20048;-74
2022/08/20 21:21:06;;;;;;;10.25;2.50;;;;;;;16.17;77.71;101534.81;10548224;28;20055;-76
2022/08/20 21:26:08;;;;;;;12.63;2.80;;;;;;;16.18;78.09;101537.50;10534825;28;20040;-77
2022/08/20 21:31:09;;;;;;;6.28;2.35;;;;;;;16.05;78.62;101546.22;10537555;28;20400;-76
2022/08/20 21:36:11;;;;;;;14.20;4.25;;;;;;;15.99;79.03;101541.78;10539404;28;20028;-73
2022/08/20 21:41:13;;;;;;;10.77;3.60;;;;;;;15.99;79.24;101540.88;10541746;28;20071;-74
2022/08/20 21:46:16;;;;;;;8.80;2.33;;;;;;;15.94;79.35;101540.84;10544976;28;20044;-74
2022/08/20 21:51:25;;;;;;;8.50;2.10;;;;;;;15.80;79.93;101537.25;10549270;28;20035;-74
2022/08/20 21:56:27;;;;;;;9.15;2.22;;;;;;;15.69;80.39;101526.56;10552316;28;20039;-76
2022/08/20 22:01:33;;;;;;;8.30;2.20;;;;;;;15.63;80.68;101531.81;10551651;28;20044;-76
2022/08/20 22:06:35;;;;;;;12.82;3.65;;;;;;;15.60;80.67;101530.00;10548807;28;20043;-74
2022/08/20 22:11:36;;;;;;;13.20;2.40;;;;;;;15.60;80.67;101530.00;10551790;28;20409;-76
2022/08/20 22:16:38;;;;;;;6.70;2.17;;;;;;;15.41;81.30;101533.38;10550687;28;20078;-75
2022/08/20 22:21:46;;;;;;;6.00;2.33;;;;;;;15.30;81.84;101533.28;10542081;28;20113;-74
2022/08/20 22:26:47;;;;;;;7.68;2.25;;;;;;;15.24;82.18;101533.19;10544931;28;20031;-74
2022/08/20 22:31:49;;;;;;;4.93;1.92;;;;;;;15.23;82.19;101534.94;10522437;28;20052;-75
2022/08/20 22:36:53;;;;;;;10.25;3.28;;;;;;;15.14;82.20;101537.50;10556640;28;20036;-77
2022/08/20 22:41:55;;;;;;;12.57;3.40;;;;;;;15.02;82.50;101528.56;10552450;28;20044;-74
2022/08/20 22:47:05;;;;;;;10.60;3.30;;;;;;;14.90;82.70;101528.44;10553708;28;20436;-76
2022/08/20 22:52:08;;;;;;;10.52;3.42;;;;;;;14.84;82.89;101523.13;10548834;28;20046;-73
2022/08/20 22:57:09;;;;;;;8.48;3.45;;;;;;;14.79;83.23;101535.38;10545215;28;20610;-74
2022/08/20 23:02:16;;;;;;;12.70;3.50;;;;;;;14.73;83.57;101532.66;10535637;28;20055;-75
2022/08/20 23:07:18;;;;;;;7.97;2.95;;;;;;;14.65;83.78;101524.66;10546652;28;20047;-76
2022/08/20 23:12:19;;;;;;;11.77;3.08;;;;;;;14.64;83.99;101531.69;10542610;28;20043;-74
2022/08/20 23:17:22;;;;;;;9.50;3.85;;;;;;;14.60;84.01;101535.09;10544624;28;20127;-74
2022/08/20 23:22:24;;;;;;;9.48;2.95;;;;;;;14.53;84.22;101527.97;10544646;28;20120;-74